createdAt,value
2018-03-04T00:01:29.236Z,-5.30
2018-03-04T00:03:55.527Z,-5.30
2018-03-04T00:06:22.581Z,-5.50
2018-03-04T00:08:49.602Z,-5.50
2018-03-04T00:11:15.937Z,-5.60
2018-03-04T00:13:42.226Z,-5.50
2018-03-04T00:16:08.596Z,-5.40
2018-03-04T00:18:34.906Z,-5.30
2018-03-04T00:21:02.766Z,-5.60
2018-03-04T00:23:29.077Z,-5.60
2018-03-04T00:25:55.356Z,-5.60
2018-03-04T00:28:23.134Z,-5.60
2018-03-04T00:30:50.161Z,-5.50
2018-03-04T00:33:16.493Z,-5.60
2018-03-04T00:35:42.781Z,-5.70
2018-03-04T00:38:09.118Z,-5.60
2018-03-04T00:40:35.414Z,-5.80
2018-03-04T00:43:01.731Z,-5.80
2018-03-04T00:45:28.757Z,-5.80
2018-03-04T00:47:55.063Z,-5.80
2018-03-04T00:50:21.413Z,-5.80
2018-03-04T00:52:47.728Z,-5.80
2018-03-04T00:55:14.004Z,-6.00
2018-03-04T00:57:40.330Z,-6.00
2018-03-04T01:00:07.433Z,-5.90
2018-03-04T01:02:33.741Z,-6.00
2018-03-04T01:05:00.047Z,-6.00
2018-03-04T01:07:26.374Z,-6.00
2018-03-04T01:09:52.687Z,-6.10
2018-03-04T01:12:19.794Z,-6.20
2018-03-04T01:14:46.103Z,-6.30
2018-03-04T01:17:12.401Z,-6.10
2018-03-04T01:19:39.491Z,-6.20
2018-03-04T01:22:05.809Z,-6.30
2018-03-04T01:24:32.105Z,-6.30
2018-03-04T01:26:58.482Z,-6.20
2018-03-04T01:29:24.808Z,-6.20
2018-03-04T01:31:51.115Z,-6.30
2018-03-04T01:34:17.421Z,-6.20
2018-03-04T01:36:44.470Z,-6.10
2018-03-04T01:39:11.573Z,-6.20
2018-03-04T01:41:37.912Z,-6.30
2018-03-04T01:44:04.223Z,-6.40
2018-03-04T01:46:30.542Z,-6.50
2018-03-04T01:48:56.882Z,-6.50
2018-03-04T01:51:35.441Z,-6.50
2018-03-04T01:54:02.503Z,-6.50
2018-03-04T01:56:28.792Z,-6.50
2018-03-04T01:58:55.107Z,-6.50
2018-03-04T02:01:21.400Z,-6.50
2018-03-04T02:03:48.469Z,-6.60
2018-03-04T02:06:14.791Z,-6.70
2018-03-04T02:08:41.187Z,-6.80
2018-03-04T02:11:08.256Z,-6.50
2018-03-04T02:13:35.307Z,-6.60
2018-03-04T02:16:02.421Z,-6.40
2018-03-04T02:18:28.741Z,-6.40
2018-03-04T02:20:55.116Z,-6.60
2018-03-04T02:23:21.410Z,-6.60
2018-03-04T02:25:47.740Z,-6.60
2018-03-04T02:28:14.361Z,-6.60
2018-03-04T02:30:40.677Z,-6.50
2018-03-04T02:33:06.968Z,-6.50
2018-03-04T02:35:33.382Z,-6.60
2018-03-04T02:37:59.665Z,-6.80
2018-03-04T02:40:26.018Z,-6.60
2018-03-04T02:42:52.317Z,-6.70
2018-03-04T02:45:18.670Z,-6.80
2018-03-04T02:47:44.978Z,-6.70
2018-03-04T02:50:11.276Z,-6.80
2018-03-04T02:52:38.410Z,-6.80
2018-03-04T02:55:06.201Z,-6.80
2018-03-04T02:57:33.246Z,-6.80
2018-03-04T02:59:59.574Z,-6.80
2018-03-04T03:02:25.902Z,-7.00
2018-03-04T03:04:52.220Z,-6.90
2018-03-04T03:07:20.038Z,-7.00
2018-03-04T03:09:46.344Z,-7.00
2018-03-04T03:12:12.662Z,-6.80
2018-03-04T03:14:38.985Z,-6.80
2018-03-04T03:17:05.325Z,-6.70
2018-03-04T03:19:31.648Z,-6.90
2018-03-04T03:21:57.965Z,-7.00
2018-03-04T03:24:24.281Z,-6.80
2018-03-04T03:26:52.082Z,-6.90
2018-03-04T03:29:18.416Z,-6.90
2018-03-04T03:31:44.729Z,-6.90
2018-03-04T03:34:11.781Z,-7.10
2018-03-04T03:36:38.830Z,-7.10
2018-03-04T03:39:05.142Z,-7.10
2018-03-04T03:41:31.492Z,-7.00
2018-03-04T03:43:57.788Z,-7.10
2018-03-04T03:46:24.113Z,-7.00
2018-03-04T03:48:50.433Z,-6.90
2018-03-04T03:51:16.758Z,-6.90
2018-03-04T03:53:43.071Z,-6.90
2018-03-04T03:56:09.404Z,-6.90
2018-03-04T03:58:35.727Z,-7.10
2018-03-04T04:01:02.385Z,-6.90
2018-03-04T04:03:28.715Z,-7.10
2018-03-04T04:05:55.027Z,-7.00
2018-03-04T04:08:21.364Z,-7.10
2018-03-04T04:10:47.672Z,-7.10
2018-03-04T04:13:14.002Z,-7.10
2018-03-04T04:15:40.312Z,-7.10
2018-03-04T04:18:06.616Z,-7.10
2018-03-04T04:20:32.917Z,-7.20
2018-03-04T04:22:59.236Z,-7.10
2018-03-04T04:25:25.567Z,-7.10
2018-03-04T04:27:51.885Z,-7.10
2018-03-04T04:30:18.186Z,-7.20
2018-03-04T04:32:44.518Z,-7.00
2018-03-04T04:35:10.848Z,-7.00
2018-03-04T04:37:37.920Z,-6.90
2018-03-04T04:40:04.223Z,-6.90
2018-03-04T04:42:31.284Z,-6.90
2018-03-04T04:44:58.317Z,-7.00
2018-03-04T04:47:24.600Z,-7.10
2018-03-04T04:49:50.895Z,-7.10
2018-03-04T04:52:17.944Z,-7.00
2018-03-04T04:54:44.981Z,-7.00
2018-03-04T04:57:12.027Z,-6.90
2018-03-04T04:59:39.814Z,-7.10
2018-03-04T05:02:06.122Z,-7.10
2018-03-04T05:04:33.176Z,-7.10
2018-03-04T05:06:59.505Z,-7.20
2018-03-04T05:09:26.562Z,-7.10
2018-03-04T05:11:52.887Z,-7.10
2018-03-04T05:14:19.217Z,-7.10
2018-03-04T05:16:46.263Z,-6.80
2018-03-04T05:19:13.549Z,-6.80
2018-03-04T05:21:39.848Z,-6.80
2018-03-04T05:24:06.170Z,-6.80
2018-03-04T05:26:32.457Z,-6.70
2018-03-04T05:28:58.791Z,-6.70
2018-03-04T05:31:25.079Z,-6.60
2018-03-04T05:33:51.390Z,-6.60
2018-03-04T05:36:18.422Z,-6.50
2018-03-04T05:38:44.728Z,-6.50
2018-03-04T05:41:11.009Z,-6.60
2018-03-04T05:43:37.328Z,-6.30
2018-03-04T05:46:03.643Z,-6.20
2018-03-04T05:48:30.688Z,-6.30
2018-03-04T05:50:58.473Z,-6.30
2018-03-04T05:53:25.524Z,-6.30
2018-03-04T05:55:51.846Z,-6.40
2018-03-04T05:58:18.155Z,-6.30
2018-03-04T06:00:45.940Z,-6.10
2018-03-04T06:03:12.277Z,-6.10
2018-03-04T06:05:38.600Z,-6.00
2018-03-04T06:08:05.653Z,-6.00
2018-03-04T06:10:32.702Z,-6.00
2018-03-04T06:12:59.034Z,-6.00
2018-03-04T06:15:25.366Z,-5.80
2018-03-04T06:17:52.397Z,-5.80
2018-03-04T06:20:19.458Z,-5.80
2018-03-04T06:22:45.768Z,-5.80
2018-03-04T06:25:12.117Z,-5.60
2018-03-04T06:27:39.148Z,-5.70
2018-03-04T06:30:06.923Z,-5.70
2018-03-04T06:32:33.217Z,-5.70
2018-03-04T06:34:59.504Z,-5.70
2018-03-04T06:37:25.809Z,-5.70
2018-03-04T06:39:52.848Z,-5.40
2018-03-04T06:42:19.906Z,-5.50
2018-03-04T06:44:46.953Z,-5.60
2018-03-04T06:47:14.041Z,-5.50
2018-03-04T06:49:40.337Z,-5.60
2018-03-04T06:52:07.377Z,-5.40
2018-03-04T06:54:34.421Z,-5.40
2018-03-04T06:57:00.753Z,-5.40
2018-03-04T06:59:27.020Z,-5.30
2018-03-04T07:01:53.317Z,-5.40
2018-03-04T07:04:20.359Z,-5.40
2018-03-04T07:06:47.410Z,-5.40
2018-03-04T07:09:14.452Z,-5.40
2018-03-04T07:11:41.505Z,-5.30
2018-03-04T07:14:07.849Z,-5.30
2018-03-04T07:16:34.162Z,-5.30
2018-03-04T07:19:01.216Z,-4.90
2018-03-04T07:21:27.569Z,-5.00
2018-03-04T07:23:53.884Z,-5.10
2018-03-04T07:26:20.201Z,-5.20
2018-03-04T07:28:47.254Z,-5.00
2018-03-04T07:31:13.573Z,-5.10
2018-03-04T07:33:39.899Z,-5.00
2018-03-04T07:36:06.198Z,-4.90
2018-03-04T07:38:33.276Z,-4.90
2018-03-04T07:40:59.624Z,-5.00
2018-03-04T07:43:26.730Z,-4.90
2018-03-04T07:45:53.006Z,-5.00
2018-03-04T07:48:19.328Z,-4.90
2018-03-04T07:50:46.362Z,-4.40
2018-03-04T07:53:12.665Z,-4.50
2018-03-04T07:55:38.976Z,-4.60
2018-03-04T07:58:05.285Z,-4.40
2018-03-04T08:00:31.598Z,-4.40
2018-03-04T08:02:57.924Z,-4.40
2018-03-04T08:05:24.970Z,-4.30
2018-03-04T08:07:52.018Z,-4.40
2018-03-04T08:10:19.055Z,-4.10
2018-03-04T08:12:45.352Z,-4.20
2018-03-04T08:15:11.640Z,-4.00
2018-03-04T08:17:37.948Z,-3.90
2018-03-04T08:20:04.998Z,-4.10
2018-03-04T08:22:32.056Z,-3.90
2018-03-04T08:25:10.918Z,-4.00
2018-03-04T08:27:49.550Z,-4.00
2018-03-04T08:30:15.884Z,-4.00
2018-03-04T08:32:42.212Z,-3.80
2018-03-04T08:35:08.508Z,-3.90
2018-03-04T08:37:34.809Z,-3.80
2018-03-04T08:40:01.137Z,-3.60
2018-03-04T08:42:27.445Z,-3.60
2018-03-04T08:44:53.749Z,-3.50
2018-03-04T08:47:20.029Z,-3.40
2018-03-04T08:49:47.098Z,-3.40
2018-03-04T08:52:13.401Z,-3.40
2018-03-04T08:54:40.452Z,-3.20
2018-03-04T08:57:06.761Z,-3.30
2018-03-04T08:59:33.074Z,-3.20
2018-03-04T09:01:59.365Z,-3.10
2018-03-04T09:04:25.698Z,-3.10
2018-03-04T09:06:52.009Z,-3.00
2018-03-04T09:09:19.057Z,-2.90
2018-03-04T09:11:45.441Z,-2.90
2018-03-04T09:14:11.813Z,-2.90
2018-03-04T09:16:38.874Z,-2.50
2018-03-04T09:19:05.207Z,-2.60
2018-03-04T09:21:31.515Z,-2.70
2018-03-04T09:23:57.832Z,-2.50
2018-03-04T09:26:24.142Z,-2.50
2018-03-04T09:28:50.439Z,-2.50
2018-03-04T09:31:16.793Z,-2.50
2018-03-04T09:33:43.104Z,-2.30
2018-03-04T09:36:09.494Z,-1.90
2018-03-04T09:38:36.671Z,-1.70
2018-03-04T09:41:02.981Z,-1.80
2018-03-04T09:43:30.026Z,-1.70
2018-03-04T09:45:56.362Z,-1.80
2018-03-04T09:48:22.744Z,-1.60
2018-03-04T09:50:49.056Z,-1.70
2018-03-04T09:53:15.396Z,-1.40
2018-03-04T09:55:41.739Z,-1.30
2018-03-04T09:58:08.046Z,-1.40
2018-03-04T10:00:34.393Z,-1.10
2018-03-04T10:03:00.720Z,-1.30
2018-03-04T10:05:27.024Z,-1.20
2018-03-04T10:07:53.357Z,-1.10
2018-03-04T10:10:19.691Z,-1.10
2018-03-04T10:12:46.011Z,-0.90
2018-03-04T10:15:12.350Z,-0.90
2018-03-04T10:17:38.705Z,-0.90
2018-03-04T10:20:04.996Z,-0.90
2018-03-04T10:22:31.315Z,-1.10
2018-03-04T10:24:57.625Z,-1.00
2018-03-04T10:27:23.928Z,-1.10
2018-03-04T10:29:50.241Z,-1.00
2018-03-04T10:32:16.567Z,-1.00
2018-03-04T10:34:42.861Z,-1.00
2018-03-04T10:37:09.184Z,-0.80
2018-03-04T10:39:35.503Z,-0.90
2018-03-04T10:42:02.576Z,-0.80
2018-03-04T10:44:29.609Z,-0.90
2018-03-04T10:46:55.964Z,-0.90
2018-03-04T10:49:22.365Z,-0.80
2018-03-04T10:51:48.812Z,-0.70
2018-03-04T10:54:15.341Z,-0.70
2018-03-04T10:56:41.666Z,-0.70
2018-03-04T10:59:08.725Z,-0.50
2018-03-04T11:01:40.875Z,-0.40
2018-03-04T11:04:07.187Z,-0.50
2018-03-04T11:06:33.530Z,-0.40
2018-03-04T11:08:59.889Z,-0.30
2018-03-04T11:11:26.990Z,-0.20
2018-03-04T11:13:53.300Z,-0.30
2018-03-04T11:16:19.622Z,-0.10
2018-03-04T11:18:45.955Z,0.10
2018-03-04T11:21:12.280Z,0.20
2018-03-04T11:23:38.605Z,0.50
2018-03-04T11:26:04.918Z,0.40
2018-03-04T11:28:32.072Z,0.50
2018-03-04T11:30:58.371Z,0.40
2018-03-04T11:33:24.718Z,0.40
2018-03-04T11:35:51.810Z,0.60
2018-03-04T11:38:18.129Z,0.50
2018-03-04T11:40:44.464Z,0.70
2018-03-04T11:43:10.813Z,0.70
2018-03-04T11:45:37.224Z,0.90
2018-03-04T11:48:03.724Z,1.10
2018-03-04T11:50:30.152Z,1.00
2018-03-04T11:52:57.220Z,1.20
2018-03-04T11:55:24.267Z,1.00
2018-03-04T11:57:50.608Z,1.00
2018-03-04T12:00:16.947Z,1.10
2018-03-04T12:02:43.299Z,1.30
2018-03-04T12:05:09.601Z,1.40
2018-03-04T12:07:35.905Z,1.40
2018-03-04T12:10:02.981Z,1.50
2018-03-04T12:12:29.281Z,1.50
2018-03-04T12:14:55.599Z,1.60
2018-03-04T12:17:21.927Z,1.50
2018-03-04T12:19:48.235Z,1.40
2018-03-04T12:22:14.546Z,1.50
2018-03-04T12:24:41.188Z,1.60
2018-03-04T12:27:07.554Z,1.90
2018-03-04T12:29:33.852Z,1.90
2018-03-04T12:32:00.142Z,2.10
2018-03-04T12:34:27.177Z,2.30
2018-03-04T12:36:53.447Z,2.20
2018-03-04T12:39:19.739Z,2.50
2018-03-04T12:41:46.790Z,2.70
2018-03-04T12:44:13.828Z,2.70
2018-03-04T12:46:40.611Z,2.70
2018-03-04T12:49:07.276Z,2.90
2018-03-04T12:51:33.626Z,3.20
2018-03-04T12:54:00.761Z,3.50
2018-03-04T12:56:27.090Z,3.40
2018-03-04T12:58:53.446Z,3.40
2018-03-04T13:01:20.526Z,3.80
2018-03-04T13:03:46.844Z,3.70
2018-03-04T13:06:13.161Z,4.20
2018-03-04T13:08:40.198Z,4.30
2018-03-04T13:11:07.295Z,4.30
2018-03-04T13:13:33.618Z,4.20
2018-03-04T13:15:59.948Z,4.40
2018-03-04T13:18:26.248Z,4.70
2018-03-04T13:20:53.348Z,5.10
2018-03-04T13:23:19.739Z,5.00
2018-03-04T13:25:46.182Z,5.20
2018-03-04T13:28:12.576Z,5.50
2018-03-04T13:30:39.641Z,5.40
2018-03-04T13:33:06.774Z,5.90
2018-03-04T13:35:33.839Z,6.50
2018-03-04T13:38:00.921Z,6.70
2018-03-04T13:40:27.274Z,6.70
2018-03-04T13:42:53.663Z,6.90
2018-03-04T13:45:19.978Z,7.00
2018-03-04T13:47:47.083Z,7.30
2018-03-04T13:50:13.386Z,7.20
2018-03-04T13:52:39.681Z,7.40
2018-03-04T13:55:05.968Z,7.30
2018-03-04T13:57:32.278Z,7.50
2018-03-04T13:59:58.573Z,7.60
2018-03-04T14:02:25.624Z,7.40
2018-03-04T14:04:52.654Z,7.80
2018-03-04T14:07:18.987Z,7.80
2018-03-04T14:09:45.265Z,7.80
2018-03-04T14:12:11.553Z,8.40
2018-03-04T14:14:38.644Z,8.90
2018-03-04T14:17:04.974Z,8.80
2018-03-04T14:19:31.271Z,8.60
2018-03-04T14:21:58.319Z,8.80
2018-03-04T14:24:25.352Z,8.90
2018-03-04T14:26:52.406Z,8.90
2018-03-04T14:29:19.436Z,9.00
2018-03-04T14:31:45.764Z,9.00
2018-03-04T14:34:12.045Z,9.40
2018-03-04T14:36:38.326Z,9.40
2018-03-04T14:39:05.380Z,10.40
2018-03-04T14:41:32.422Z,9.70
2018-03-04T14:43:58.770Z,9.60
2018-03-04T14:46:25.799Z,9.80
2018-03-04T14:48:52.918Z,9.60
2018-03-04T14:51:19.219Z,9.50
2018-03-04T14:53:45.558Z,9.70
2018-03-04T14:56:11.921Z,10.30
2018-03-04T14:58:38.245Z,10.20
2018-03-04T15:01:04.622Z,10.10
2018-03-04T15:03:31.657Z,10.40
2018-03-04T15:05:58.692Z,10.30
2018-03-04T15:08:24.989Z,10.20
2018-03-04T15:10:51.265Z,10.20
2018-03-04T15:13:17.616Z,10.20
2018-03-04T15:15:43.893Z,10.00
2018-03-04T15:18:10.199Z,10.50
2018-03-04T15:20:36.537Z,10.10
2018-03-04T15:23:03.718Z,9.80
2018-03-04T15:25:30.018Z,10.00
2018-03-04T15:27:56.328Z,9.50
2018-03-04T15:30:22.649Z,9.70
2018-03-04T15:32:48.962Z,9.90
2018-03-04T15:35:16.004Z,9.00
2018-03-04T15:37:43.038Z,8.90
2018-03-04T15:40:09.366Z,8.90
2018-03-04T15:42:35.649Z,8.90
2018-03-04T15:45:01.977Z,8.90
2018-03-04T15:47:28.266Z,9.00
2018-03-04T15:49:54.607Z,8.20
2018-03-04T15:52:20.912Z,8.50
2018-03-04T15:54:47.216Z,8.00
2018-03-04T15:57:13.499Z,7.60
2018-03-04T15:59:39.837Z,6.80
2018-03-04T16:02:06.145Z,6.50
2018-03-04T16:04:33.203Z,5.70
2018-03-04T16:07:00.243Z,5.40
2018-03-04T16:09:27.292Z,5.20
2018-03-04T16:11:54.334Z,5.10
2018-03-04T16:14:21.385Z,5.20
2018-03-04T16:16:47.701Z,5.10
2018-03-04T16:19:14.242Z,5.10
2018-03-04T16:21:40.635Z,4.70
2018-03-04T16:24:06.961Z,4.50
2018-03-04T16:26:33.295Z,4.30
2018-03-04T16:28:59.602Z,4.20
2018-03-04T16:31:25.900Z,4.00
2018-03-04T16:33:52.929Z,3.90
2018-03-04T16:36:19.228Z,3.80
2018-03-04T16:38:45.526Z,3.50
2018-03-04T16:41:11.889Z,3.40
2018-03-04T16:43:38.173Z,3.60
2018-03-04T16:46:04.484Z,3.70
2018-03-04T16:48:31.552Z,3.40
2018-03-04T16:50:58.588Z,3.40
2018-03-04T16:53:24.881Z,3.30
2018-03-04T16:55:51.188Z,3.50
2018-03-04T16:58:17.626Z,3.50
2018-03-04T17:00:43.932Z,3.60
2018-03-04T17:03:10.242Z,3.50
2018-03-04T17:05:37.332Z,3.40
2018-03-04T17:08:03.669Z,3.30
2018-03-04T17:10:30.036Z,3.30
2018-03-04T17:12:57.114Z,3.40
2018-03-04T17:15:23.436Z,3.40
2018-03-04T17:17:50.544Z,3.40
2018-03-04T17:20:16.847Z,3.30
2018-03-04T17:22:43.207Z,3.40
2018-03-04T17:25:09.505Z,3.20
2018-03-04T17:27:35.811Z,3.40
2018-03-04T17:30:02.197Z,3.30
2018-03-04T17:32:28.516Z,3.20
2018-03-04T17:34:54.821Z,3.10
2018-03-04T17:37:21.221Z,3.10
2018-03-04T17:39:47.463Z,3.20
2018-03-04T17:42:14.503Z,3.20
2018-03-04T17:44:41.718Z,3.20
2018-03-04T17:47:08.081Z,3.10
2018-03-04T17:49:35.838Z,3.10
2018-03-04T17:52:02.168Z,3.10
2018-03-04T17:54:28.452Z,3.10
2018-03-04T17:56:54.749Z,3.00
2018-03-04T17:59:21.061Z,3.00
2018-03-04T18:01:48.112Z,3.10
2018-03-04T18:04:15.149Z,3.00
2018-03-04T18:06:41.470Z,2.90
2018-03-04T18:09:08.542Z,3.10
2018-03-04T18:11:35.593Z,3.10
2018-03-04T18:14:02.681Z,3.10
2018-03-04T18:16:28.977Z,3.00
2018-03-04T18:18:55.300Z,3.00
2018-03-04T18:21:22.321Z,2.90
2018-03-04T18:23:48.620Z,2.90
2018-03-04T18:26:14.945Z,2.80
2018-03-04T18:28:41.256Z,2.90
2018-03-04T18:31:07.568Z,2.90
2018-03-04T18:33:33.882Z,3.00
2018-03-04T18:36:00.248Z,2.90
2018-03-04T18:38:26.560Z,2.80
2018-03-04T18:40:52.860Z,2.80
2018-03-04T18:43:19.165Z,2.80
2018-03-04T18:45:45.473Z,2.90
2018-03-04T18:48:11.789Z,2.80
2018-03-04T18:50:38.186Z,2.70
2018-03-04T18:53:04.465Z,2.80
2018-03-04T18:55:30.765Z,2.80
2018-03-04T18:57:57.792Z,2.80
2018-03-04T19:00:24.121Z,2.70
2018-03-04T19:02:50.428Z,2.70
2018-03-04T19:05:16.758Z,2.70
2018-03-04T19:07:43.167Z,2.60
2018-03-04T19:10:09.545Z,2.70
2018-03-04T19:12:36.592Z,2.90
2018-03-04T19:15:02.895Z,2.80
2018-03-04T19:17:29.181Z,2.80
2018-03-04T19:19:55.509Z,2.80
2018-03-04T19:22:21.876Z,2.70
2018-03-04T19:24:48.206Z,2.60
2018-03-04T19:27:14.498Z,2.60
2018-03-04T19:29:41.551Z,2.70
2018-03-04T19:32:07.860Z,2.70
2018-03-04T19:34:34.917Z,2.60
2018-03-04T19:37:01.287Z,2.60
2018-03-04T19:39:27.608Z,2.70
2018-03-04T19:41:53.913Z,2.60
2018-03-04T19:44:20.949Z,2.70
2018-03-04T19:46:48.002Z,2.70
2018-03-04T19:49:15.053Z,2.60
2018-03-04T19:51:42.102Z,2.60
2018-03-04T19:54:08.403Z,2.60
2018-03-04T19:56:35.490Z,2.60
2018-03-04T19:59:01.815Z,2.50
2018-03-04T20:01:28.140Z,2.50
2018-03-04T20:03:54.470Z,2.60
2018-03-04T20:06:21.536Z,2.60
2018-03-04T20:08:47.839Z,2.50
2018-03-04T20:11:14.943Z,2.60
2018-03-04T20:13:41.229Z,2.60
2018-03-04T20:16:07.607Z,2.70
2018-03-04T20:18:34.020Z,2.60
2018-03-04T20:21:00.426Z,2.40
2018-03-04T20:23:26.758Z,2.40
2018-03-04T20:25:53.090Z,2.40
2018-03-04T20:28:20.186Z,2.30
2018-03-04T20:30:46.532Z,2.30
2018-03-04T20:33:12.881Z,2.30
2018-03-04T20:35:39.916Z,2.00
2018-03-04T20:38:06.236Z,1.90
2018-03-04T20:40:34.035Z,1.90
2018-03-04T20:43:01.080Z,1.90
2018-03-04T20:45:28.119Z,1.80
2018-03-04T20:47:54.514Z,1.80
2018-03-04T20:50:20.935Z,1.90
2018-03-04T20:52:47.224Z,1.80
2018-03-04T20:55:13.524Z,1.80
2018-03-04T20:57:39.858Z,1.80
2018-03-04T21:00:06.231Z,1.90
2018-03-04T21:02:32.532Z,1.90
2018-03-04T21:04:59.567Z,2.00
2018-03-04T21:07:25.870Z,1.90
2018-03-04T21:09:52.195Z,2.00
2018-03-04T21:12:18.528Z,2.00
2018-03-04T21:14:44.813Z,2.10
2018-03-04T21:17:11.910Z,2.10
2018-03-04T21:19:38.265Z,2.00
2018-03-04T21:22:04.636Z,2.00
2018-03-04T21:24:30.982Z,1.90
2018-03-04T21:26:57.270Z,2.00
2018-03-04T21:29:24.321Z,1.90
2018-03-04T21:31:51.380Z,1.90
2018-03-04T21:34:17.690Z,1.90
2018-03-04T21:36:43.957Z,2.00
2018-03-04T21:39:10.276Z,2.00
2018-03-04T21:41:36.584Z,1.90
2018-03-04T21:44:03.635Z,1.80
2018-03-04T21:46:29.950Z,1.70
2018-03-04T21:48:56.251Z,1.80
2018-03-04T21:51:22.542Z,1.70
2018-03-04T21:53:48.866Z,1.80
2018-03-04T21:56:15.164Z,1.60
2018-03-04T21:58:41.460Z,1.70
2018-03-04T22:01:08.300Z,1.60
2018-03-04T22:03:34.623Z,1.70
2018-03-04T22:06:00.933Z,1.60
2018-03-04T22:08:27.234Z,1.60
2018-03-04T22:10:53.538Z,1.60
2018-03-04T22:13:19.835Z,1.50
2018-03-04T22:15:46.143Z,1.60
2018-03-04T22:18:12.463Z,1.60
2018-03-04T22:20:39.505Z,1.50
2018-03-04T22:23:06.563Z,1.50
2018-03-04T22:25:32.889Z,1.40
2018-03-04T22:27:59.954Z,1.30
2018-03-04T22:30:26.253Z,1.30
2018-03-04T22:32:52.544Z,1.30
2018-03-04T22:35:18.846Z,1.40
2018-03-04T22:37:45.140Z,1.40
2018-03-04T22:40:11.442Z,1.40
2018-03-04T22:42:37.717Z,1.50
2018-03-04T22:45:04.752Z,1.40
2018-03-04T22:47:31.000Z,1.40
2018-03-04T22:49:57.263Z,1.40
2018-03-04T22:52:23.535Z,1.30
2018-03-04T22:54:50.584Z,1.40
2018-03-04T22:57:16.874Z,1.30
2018-03-04T22:59:43.175Z,1.30
2018-03-04T23:02:09.470Z,1.20
2018-03-04T23:04:36.532Z,1.20
2018-03-04T23:07:02.794Z,1.10
2018-03-04T23:09:29.794Z,1.20
2018-03-04T23:11:56.841Z,1.30
2018-03-04T23:14:23.991Z,1.10
2018-03-04T23:16:50.254Z,1.10
2018-03-04T23:19:16.538Z,1.20
2018-03-04T23:21:42.848Z,1.20
2018-03-04T23:24:09.120Z,1.00
2018-03-04T23:26:35.390Z,1.10
2018-03-04T23:29:01.671Z,1.10
2018-03-04T23:31:28.728Z,1.00
2018-03-04T23:33:55.004Z,0.90
2018-03-04T23:36:21.289Z,1.00
2018-03-04T23:38:47.574Z,1.00
2018-03-04T23:41:13.836Z,0.80
2018-03-04T23:43:40.101Z,0.90
2018-03-04T23:46:06.393Z,1.00
2018-03-04T23:48:32.665Z,1.00
2018-03-04T23:50:59.291Z,1.00
2018-03-04T23:53:26.303Z,1.00
2018-03-04T23:55:52.591Z,0.90
2018-03-04T23:58:18.873Z,1.00
